sensor_id;sensor_type;location;lat;lon;timestamp;P1;durP1;ratioP1;P2;durP2;ratioP2
69485;SDS011;56677;51.710;5.366;2022-11-15T07:15:27;5.10;;;2.75;;
69485;SDS011;56677;51.710;5.366;2022-11-15T07:17:52;6.30;;;3.40;;
69485;SDS011;56677;51.710;5.366;2022-11-15T07:20:17;5.22;;;3.28;;
69485;SDS011;56677;51.710;5.366;2022-11-15T07:22:43;6.83;;;3.37;;
69485;SDS011;56677;51.710;5.366;2022-11-15T07:25:08;5.50;;;3.17;;
69485;SDS011;56677;51.710;5.366;2022-11-15T07:27:33;5.07;;;3.10;;
69485;SDS011;56677;51.710;5.366;2022-11-15T07:29:59;5.70;;;3.47;;
69485;SDS011;56677;51.710;5.366;2022-11-15T07:32:24;5.65;;;3.50;;
69485;SDS011;56677;51.710;5.366;2022-11-15T07:34:49;5.70;;;3.17;;
69485;SDS011;56677;51.710;5.366;2022-11-15T07:37:14;5.20;;;3.07;;
69485;SDS011;56677;51.710;5.366;2022-11-15T07:39:39;5.22;;;3.10;;
69485;SDS011;56677;51.710;5.366;2022-11-15T07:42:04;7.25;;;3.00;;
69485;SDS011;56677;51.710;5.366;2022-11-15T07:44:29;5.13;;;2.73;;
69485;SDS011;56677;51.710;5.366;2022-11-15T07:46:55;4.95;;;2.90;;
69485;SDS011;56677;51.710;5.366;2022-11-15T07:49:20;5.43;;;3.10;;
69485;SDS011;56677;51.710;5.366;2022-11-15T07:51:45;6.53;;;3.05;;
69485;SDS011;56677;51.710;5.366;2022-11-15T07:54:10;6.68;;;3.33;;
69485;SDS011;56677;51.710;5.366;2022-11-15T07:56:35;7.63;;;3.22;;
69485;SDS011;56677;51.710;5.366;2022-11-15T07:59:00;6.47;;;3.38;;
69485;SDS011;56677;51.710;5.366;2022-11-15T08:01:25;5.20;;;3.13;;
69485;SDS011;56677;51.710;5.366;2022-11-15T08:03:50;5.20;;;3.00;;
69485;SDS011;56677;51.710;5.366;2022-11-15T08:06:15;11.63;;;3.40;;
69485;SDS011;56677;51.710;5.366;2022-11-15T08:08:40;5.82;;;2.90;;
69485;SDS011;56677;51.710;5.366;2022-11-15T08:11:06;7.80;;;3.42;;
69485;SDS011;56677;51.710;5.366;2022-11-15T08:13:31;5.27;;;3.30;;
69485;SDS011;56677;51.710;5.366;2022-11-15T08:15:59;5.80;;;2.93;;
69485;SDS011;56677;51.710;5.366;2022-11-15T08:18:25;5.72;;;3.10;;
69485;SDS011;56677;51.710;5.366;2022-11-15T08:20:50;4.95;;;3.33;;
69485;SDS011;56677;51.710;5.366;2022-11-15T08:23:15;8.53;;;3.43;;
69485;SDS011;56677;51.710;5.366;2022-11-15T08:25:40;5.72;;;3.20;;
69485;SDS011;56677;51.710;5.366;2022-11-15T08:28:06;5.20;;;3.00;;
69485;SDS011;56677;51.710;5.366;2022-11-15T08:30:34;5.53;;;2.67;;
69485;SDS011;56677;51.710;5.366;2022-11-15T08:32:59;5.18;;;2.90;;
69485;SDS011;56677;51.710;5.366;2022-11-15T08:35:25;8.18;;;2.97;;
69485;SDS011;56677;51.710;5.366;2022-11-15T08:37:50;4.45;;;3.08;;
69485;SDS011;56677;51.710;5.366;2022-11-15T08:40:16;6.00;;;3.00;;
69485;SDS011;56677;51.710;5.366;2022-11-15T08:42:42;6.78;;;3.25;;
69485;SDS011;56677;51.710;5.366;2022-11-15T08:45:07;6.28;;;2.92;;
69485;SDS011;56677;51.710;5.366;2022-11-15T08:47:33;5.40;;;3.22;;
69485;SDS011;56677;51.710;5.366;2022-11-15T08:49:58;4.63;;;2.97;;
69485;SDS011;56677;51.710;5.366;2022-11-15T08:52:23;5.97;;;2.65;;
69485;SDS011;56677;51.710;5.366;2022-11-15T08:54:48;5.43;;;2.97;;
69485;SDS011;56677;51.710;5.366;2022-11-15T08:57:13;5.45;;;3.30;;
69485;SDS011;56677;51.710;5.366;2022-11-15T08:59:38;4.67;;;2.70;;
69485;SDS011;56677;51.710;5.366;2022-11-15T09:02:04;5.40;;;2.70;;
69485;SDS011;56677;51.710;5.366;2022-11-15T09:04:29;4.82;;;2.72;;
69485;SDS011;56677;51.710;5.366;2022-11-15T09:06:54;4.88;;;3.05;;
69485;SDS011;56677;51.710;5.366;2022-11-15T09:09:19;5.15;;;2.47;;
69485;SDS011;56677;51.710;5.366;2022-11-15T09:11:44;4.10;;;2.60;;
69485;SDS011;56677;51.710;5.366;2022-11-15T09:14:12;4.10;;;2.78;;
69485;SDS011;56677;51.710;5.366;2022-11-15T09:16:38;4.80;;;3.00;;
69485;SDS011;56677;51.710;5.366;2022-11-15T09:19:03;6.07;;;2.97;;
69485;SDS011;56677;51.710;5.366;2022-11-15T09:21:28;6.30;;;2.77;;
69485;SDS011;56677;51.710;5.366;2022-11-15T09:23:54;4.30;;;2.47;;
69485;SDS011;56677;51.710;5.366;2022-11-15T09:26:19;5.43;;;3.22;;
69485;SDS011;56677;51.710;5.366;2022-11-15T09:28:44;5.22;;;2.72;;
69485;SDS011;56677;51.710;5.366;2022-11-15T09:31:09;5.30;;;3.20;;
69485;SDS011;56677;51.710;5.366;2022-11-15T09:33:34;5.67;;;3.27;;
69485;SDS011;56677;51.710;5.366;2022-11-15T09:36:04;5.10;;;3.00;;
69485;SDS011;56677;51.710;5.366;2022-11-15T09:38:30;4.83;;;2.77;;
69485;SDS011;56677;51.710;5.366;2022-11-15T09:46:22;3.72;;;2.60;;
69485;SDS011;56677;51.710;5.366;2022-11-15T09:48:55;5.05;;;2.92;;
69485;SDS011;56677;51.710;5.366;2022-11-15T09:51:24;4.43;;;2.42;;
69485;SDS011;56677;51.710;5.366;2022-11-15T09:56:21;5.23;;;2.83;;
69485;SDS011;56677;51.710;5.366;2022-11-15T10:04:04;4.57;;;2.92;;
69485;SDS011;56677;51.710;5.366;2022-11-15T10:06:30;4.20;;;3.03;;
69485;SDS011;56677;51.710;5.366;2022-11-15T10:09:01;4.85;;;2.42;;
69485;SDS011;56677;51.710;5.366;2022-11-15T10:11:28;4.47;;;2.72;;
69485;SDS011;56677;51.710;5.366;2022-11-15T10:13:55;4.07;;;2.40;;
69485;SDS011;56677;51.710;5.366;2022-11-15T10:18:59;5.55;;;2.70;;
69485;SDS011;56677;51.710;5.366;2022-11-15T10:24:07;3.80;;;2.20;;
69485;SDS011;56677;51.710;5.366;2022-11-15T10:26:35;4.43;;;2.55;;
69485;SDS011;56677;51.710;5.366;2022-11-15T10:29:00;4.47;;;2.53;;
69485;SDS011;56677;51.710;5.366;2022-11-15T10:31:26;4.38;;;2.65;;
69485;SDS011;56677;51.710;5.366;2022-11-15T10:33:56;3.85;;;2.08;;
69485;SDS011;56677;51.710;5.366;2022-11-15T10:36:24;4.05;;;2.20;;
69485;SDS011;56677;51.710;5.366;2022-11-15T10:41:18;5.10;;;2.47;;
69485;SDS011;56677;51.710;5.366;2022-11-15T10:43:43;4.22;;;2.58;;
69485;SDS011;56677;51.710;5.366;2022-11-15T10:46:43;4.60;;;2.57;;
69485;SDS011;56677;51.710;5.366;2022-11-15T10:51:42;4.25;;;2.50;;
69485;SDS011;56677;51.710;5.366;2022-11-15T10:54:07;3.67;;;2.33;;
69485;SDS011;56677;51.710;5.366;2022-11-15T10:56:35;4.60;;;2.40;;
69485;SDS011;56677;51.710;5.366;2022-11-15T10:59:00;3.90;;;2.57;;
69485;SDS011;56677;51.710;5.366;2022-11-15T11:01:26;5.07;;;2.50;;
69485;SDS011;56677;51.710;5.366;2022-11-15T11:03:59;3.80;;;2.40;;
69485;SDS011;56677;51.710;5.366;2022-11-15T11:06:24;4.18;;;2.40;;
69485;SDS011;56677;51.710;5.366;2022-11-15T11:08:54;3.73;;;2.10;;
69485;SDS011;56677;51.710;5.366;2022-11-15T11:11:19;4.30;;;2.13;;
69485;SDS011;56677;51.710;5.366;2022-11-15T11:13:44;4.17;;;2.00;;
69485;SDS011;56677;51.710;5.366;2022-11-15T11:21:18;4.03;;;2.20;;
69485;SDS011;56677;51.710;5.366;2022-11-15T11:26:19;3.88;;;2.20;;
69485;SDS011;56677;51.710;5.366;2022-11-15T11:28:54;3.78;;;2.25;;
69485;SDS011;56677;51.710;5.366;2022-11-15T11:34:01;4.00;;;2.30;;
69485;SDS011;56677;51.710;5.366;2022-11-15T11:39:29;3.53;;;2.17;;
69485;SDS011;56677;51.710;5.366;2022-11-15T11:44:27;4.43;;;2.30;;
69485;SDS011;56677;51.710;5.366;2022-11-15T11:47:12;3.92;;;2.00;;
69485;SDS011;56677;51.710;5.366;2022-11-15T11:49:44;4.37;;;2.23;;
69485;SDS011;56677;51.710;5.366;2022-11-15T11:52:16;4.28;;;2.03;;
69485;SDS011;56677;51.710;5.366;2022-11-15T11:57:11;3.60;;;1.80;;
69485;SDS011;56677;51.710;5.366;2022-11-15T11:59:41;2.85;;;2.03;;
69485;SDS011;56677;51.710;5.366;2022-11-15T12:02:11;3.20;;;1.87;;
69485;SDS011;56677;51.710;5.366;2022-11-15T12:04:37;4.32;;;2.20;;
69485;SDS011;56677;51.710;5.366;2022-11-15T12:07:17;4.10;;;2.25;;
69485;SDS011;56677;51.710;5.366;2022-11-15T12:10:12;3.80;;;2.20;;
69485;SDS011;56677;51.710;5.366;2022-11-15T12:12:50;4.22;;;2.28;;
69485;SDS011;56677;51.710;5.366;2022-11-15T12:15:22;3.80;;;2.07;;
69485;SDS011;56677;51.710;5.366;2022-11-15T12:17:48;4.57;;;2.13;;
69485;SDS011;56677;51.710;5.366;2022-11-15T12:20:21;3.00;;;1.90;;
69485;SDS011;56677;51.710;5.366;2022-11-15T12:25:22;3.55;;;2.17;;
69485;SDS011;56677;51.710;5.366;2022-11-15T12:27:51;3.35;;;1.88;;
69485;SDS011;56677;51.710;5.366;2022-11-15T12:30:19;4.25;;;1.90;;
69485;SDS011;56677;51.710;5.366;2022-11-15T12:32:58;3.60;;;2.35;;
69485;SDS011;56677;51.710;5.366;2022-11-15T12:35:26;8.60;;;2.53;;
69485;SDS011;56677;51.710;5.366;2022-11-15T12:37:52;3.25;;;2.20;;
69485;SDS011;56677;51.710;5.366;2022-11-15T12:40:19;4.82;;;2.30;;
69485;SDS011;56677;51.710;5.366;2022-11-15T12:45:33;3.88;;;2.28;;
69485;SDS011;56677;51.710;5.366;2022-11-15T13:01:08;3.80;;;2.43;;
69485;SDS011;56677;51.710;5.366;2022-11-15T13:03:34;3.75;;;2.45;;
69485;SDS011;56677;51.710;5.366;2022-11-15T13:06:00;3.20;;;2.00;;
69485;SDS011;56677;51.710;5.366;2022-11-15T13:08:35;3.20;;;2.00;;
69485;SDS011;56677;51.710;5.366;2022-11-15T13:11:27;3.08;;;1.95;;
69485;SDS011;56677;51.710;5.366;2022-11-15T13:13:45;3.28;;;1.90;;
69485;SDS011;56677;51.710;5.366;2022-11-15T13:16:11;3.07;;;2.10;;
69485;SDS011;56677;51.710;5.366;2022-11-15T13:18:42;4.25;;;2.35;;
69485;SDS011;56677;51.710;5.366;2022-11-15T13:21:23;2.53;;;1.60;;
69485;SDS011;56677;51.710;5.366;2022-11-15T13:23:52;2.70;;;1.92;;
69485;SDS011;56677;51.710;5.366;2022-11-15T13:26:17;3.78;;;2.20;;
69485;SDS011;56677;51.710;5.366;2022-11-15T13:28:44;4.63;;;2.13;;
69485;SDS011;56677;51.710;5.366;2022-11-15T13:33:43;2.80;;;1.87;;
69485;SDS011;56677;51.710;5.366;2022-11-15T13:36:12;2.85;;;1.83;;
69485;SDS011;56677;51.710;5.366;2022-11-15T13:38:39;3.87;;;2.10;;
69485;SDS011;56677;51.710;5.366;2022-11-15T13:41:16;4.45;;;1.98;;
69485;SDS011;56677;51.710;5.366;2022-11-15T13:43:42;3.45;;;1.70;;
69485;SDS011;56677;51.710;5.366;2022-11-15T13:46:15;3.50;;;1.75;;
69485;SDS011;56677;51.710;5.366;2022-11-15T13:48:41;2.70;;;1.87;;
69485;SDS011;56677;51.710;5.366;2022-11-15T13:51:09;2.50;;;1.60;;
69485;SDS011;56677;51.710;5.366;2022-11-15T13:53:34;2.58;;;1.83;;
69485;SDS011;56677;51.710;5.366;2022-11-15T13:56:01;2.58;;;2.08;;
69485;SDS011;56677;51.710;5.366;2022-11-15T13:58:26;3.43;;;1.83;;
69485;SDS011;56677;51.710;5.366;2022-11-15T14:00:59;3.63;;;1.93;;
69485;SDS011;56677;51.710;5.366;2022-11-15T14:03:26;5.07;;;2.30;;
69485;SDS011;56677;51.710;5.366;2022-11-15T14:08:28;4.75;;;1.85;;
69485;SDS011;56677;51.710;5.366;2022-11-15T14:13:37;4.68;;;2.05;;
69485;SDS011;56677;51.710;5.366;2022-11-15T14:16:15;3.75;;;1.85;;
69485;SDS011;56677;51.710;5.366;2022-11-15T14:18:41;2.88;;;1.95;;
69485;SDS011;56677;51.710;5.366;2022-11-15T14:21:07;3.63;;;2.33;;
69485;SDS011;56677;51.710;5.366;2022-11-15T14:23:32;3.08;;;1.70;;
69485;SDS011;56677;51.710;5.366;2022-11-15T14:25:58;4.75;;;2.00;;
69485;SDS011;56677;51.710;5.366;2022-11-15T14:30:49;2.53;;;1.85;;
69485;SDS011;56677;51.710;5.366;2022-11-15T14:33:24;4.03;;;2.10;;
69485;SDS011;56677;51.710;5.366;2022-11-15T14:35:51;2.33;;;1.60;;
69485;SDS011;56677;51.710;5.366;2022-11-15T14:38:16;3.25;;;1.70;;
69485;SDS011;56677;51.710;5.366;2022-11-15T14:40:41;3.80;;;2.20;;
69485;SDS011;56677;51.710;5.366;2022-11-15T14:43:08;2.90;;;1.67;;
69485;SDS011;56677;51.710;5.366;2022-11-15T14:45:34;3.03;;;2.08;;
69485;SDS011;56677;51.710;5.366;2022-11-15T14:47:59;3.07;;;1.73;;
69485;SDS011;56677;51.710;5.366;2022-11-15T14:50:24;4.22;;;1.67;;
69485;SDS011;56677;51.710;5.366;2022-11-15T14:52:49;2.35;;;1.58;;
69485;SDS011;56677;51.710;5.366;2022-11-15T14:57:40;4.03;;;1.67;;
69485;SDS011;56677;51.710;5.366;2022-11-15T15:00:05;2.77;;;2.00;;
69485;SDS011;56677;51.710;5.366;2022-11-15T15:02:30;2.93;;;1.50;;
69485;SDS011;56677;51.710;5.366;2022-11-15T15:04:55;2.13;;;1.58;;
69485;SDS011;56677;51.710;5.366;2022-11-15T15:07:21;3.00;;;1.63;;
69485;SDS011;56677;51.710;5.366;2022-11-15T15:09:46;4.85;;;1.67;;
69485;SDS011;56677;51.710;5.366;2022-11-15T15:12:18;2.65;;;1.67;;
69485;SDS011;56677;51.710;5.366;2022-11-15T15:14:44;5.13;;;1.80;;
69485;SDS011;56677;51.710;5.366;2022-11-15T15:17:09;3.30;;;1.50;;
69485;SDS011;56677;51.710;5.366;2022-11-15T15:19:34;2.90;;;1.55;;
69485;SDS011;56677;51.710;5.366;2022-11-15T15:21:59;2.63;;;1.60;;
69485;SDS011;56677;51.710;5.366;2022-11-15T15:24:24;3.22;;;1.60;;
69485;SDS011;56677;51.710;5.366;2022-11-15T15:26:49;2.40;;;1.90;;
69485;SDS011;56677;51.710;5.366;2022-11-15T15:29:15;3.00;;;1.47;;
69485;SDS011;56677;51.710;5.366;2022-11-15T15:31:40;3.45;;;1.60;;
69485;SDS011;56677;51.710;5.366;2022-11-15T15:34:05;5.30;;;1.80;;
69485;SDS011;56677;51.710;5.366;2022-11-15T15:36:30;5.18;;;1.67;;
69485;SDS011;56677;51.710;5.366;2022-11-15T15:38:55;5.57;;;1.80;;
69485;SDS011;56677;51.710;5.366;2022-11-15T15:41:20;2.38;;;1.50;;
69485;SDS011;56677;51.710;5.366;2022-11-15T15:43:45;6.32;;;1.60;;
69485;SDS011;56677;51.710;5.366;2022-11-15T15:46:14;2.80;;;1.55;;
69485;SDS011;56677;51.710;5.366;2022-11-15T15:48:39;2.30;;;1.65;;
69485;SDS011;56677;51.710;5.366;2022-11-15T15:51:05;5.20;;;1.70;;
69485;SDS011;56677;51.710;5.366;2022-11-15T15:53:30;3.38;;;1.42;;
69485;SDS011;56677;51.710;5.366;2022-11-15T15:55:55;3.07;;;1.50;;
69485;SDS011;56677;51.710;5.366;2022-11-15T15:58:20;3.38;;;1.65;;
69485;SDS011;56677;51.710;5.366;2022-11-15T16:00:45;6.70;;;2.10;;
69485;SDS011;56677;51.710;5.366;2022-11-15T16:03:11;3.33;;;1.75;;
69485;SDS011;56677;51.710;5.366;2022-11-15T16:05:36;2.47;;;1.50;;
69485;SDS011;56677;51.710;5.366;2022-11-15T16:08:01;3.30;;;1.77;;
69485;SDS011;56677;51.710;5.366;2022-11-15T16:10:27;2.65;;;1.50;;
69485;SDS011;56677;51.710;5.366;2022-11-15T16:12:53;2.85;;;1.55;;
69485;SDS011;56677;51.710;5.366;2022-11-15T16:15:18;2.55;;;1.75;;
69485;SDS011;56677;51.710;5.366;2022-11-15T16:17:46;3.17;;;1.90;;
69485;SDS011;56677;51.710;5.366;2022-11-15T16:20:20;3.15;;;1.67;;
69485;SDS011;56677;51.710;5.366;2022-11-15T16:22:47;6.57;;;1.60;;
69485;SDS011;56677;51.710;5.366;2022-11-15T16:25:12;3.17;;;1.70;;
69485;SDS011;56677;51.710;5.366;2022-11-15T16:27:37;4.68;;;1.77;;
69485;SDS011;56677;51.710;5.366;2022-11-15T16:30:03;2.30;;;1.30;;
69485;SDS011;56677;51.710;5.366;2022-11-15T16:32:28;2.65;;;1.52;;
69485;SDS011;56677;51.710;5.366;2022-11-15T16:34:54;3.55;;;1.77;;
69485;SDS011;56677;51.710;5.366;2022-11-15T16:37:22;3.37;;;1.70;;
69485;SDS011;56677;51.710;5.366;2022-11-15T16:39:48;4.53;;;1.90;;
69485;SDS011;56677;51.710;5.366;2022-11-15T16:42:13;4.53;;;1.90;;
69485;SDS011;56677;51.710;5.366;2022-11-15T16:44:38;3.78;;;2.13;;
69485;SDS011;56677;51.710;5.366;2022-11-15T16:47:03;4.35;;;1.70;;
69485;SDS011;56677;51.710;5.366;2022-11-15T16:49:28;3.47;;;1.90;;
69485;SDS011;56677;51.710;5.366;2022-11-15T16:51:53;4.30;;;1.67;;
69485;SDS011;56677;51.710;5.366;2022-11-15T16:54:18;4.43;;;1.60;;
69485;SDS011;56677;51.710;5.366;2022-11-15T16:56:43;4.50;;;1.83;;
69485;SDS011;56677;51.710;5.366;2022-11-15T16:59:10;5.27;;;2.20;;
69485;SDS011;56677;51.710;5.366;2022-11-15T17:01:38;5.00;;;2.17;;
69485;SDS011;56677;51.710;5.366;2022-11-15T17:04:03;3.87;;;2.10;;
69485;SDS011;56677;51.710;5.366;2022-11-15T17:06:28;3.10;;;1.80;;
69485;SDS011;56677;51.710;5.366;2022-11-15T17:08:53;3.65;;;2.00;;
69485;SDS011;56677;51.710;5.366;2022-11-15T17:11:20;3.30;;;1.85;;
69485;SDS011;56677;51.710;5.366;2022-11-15T17:13:46;5.97;;;2.35;;
69485;SDS011;56677;51.710;5.366;2022-11-15T17:16:12;4.27;;;2.00;;
69485;SDS011;56677;51.710;5.366;2022-11-15T17:18:37;4.37;;;1.77;;
69485;SDS011;56677;51.710;5.366;2022-11-15T17:21:06;4.07;;;1.90;;
69485;SDS011;56677;51.710;5.366;2022-11-15T17:23:32;6.10;;;2.00;;
69485;SDS011;56677;51.710;5.366;2022-11-15T17:25:58;4.72;;;2.28;;
69485;SDS011;56677;51.710;5.366;2022-11-15T17:28:23;3.87;;;2.10;;
69485;SDS011;56677;51.710;5.366;2022-11-15T17:30:48;2.65;;;1.60;;
69485;SDS011;56677;51.710;5.366;2022-11-15T17:33:13;4.72;;;1.88;;
69485;SDS011;56677;51.710;5.366;2022-11-15T17:35:38;4.63;;;1.83;;
69485;SDS011;56677;51.710;5.366;2022-11-15T17:38:03;3.20;;;1.65;;
69485;SDS011;56677;51.710;5.366;2022-11-15T17:40:28;4.97;;;2.05;;
69485;SDS011;56677;51.710;5.366;2022-11-15T17:42:53;3.95;;;2.00;;
69485;SDS011;56677;51.710;5.366;2022-11-15T17:45:19;4.43;;;1.77;;
69485;SDS011;56677;51.710;5.366;2022-11-15T17:47:44;5.32;;;1.70;;
69485;SDS011;56677;51.710;5.366;2022-11-15T17:50:09;3.20;;;1.57;;
69485;SDS011;56677;51.710;5.366;2022-11-15T17:52:34;2.65;;;1.40;;
69485;SDS011;56677;51.710;5.366;2022-11-15T17:54:59;5.10;;;1.80;;
69485;SDS011;56677;51.710;5.366;2022-11-15T17:57:24;4.30;;;1.98;;
69485;SDS011;56677;51.710;5.366;2022-11-15T17:59:49;3.60;;;1.65;;
69485;SDS011;56677;51.710;5.366;2022-11-15T18:02:14;2.67;;;1.75;;
69485;SDS011;56677;51.710;5.366;2022-11-15T18:04:39;4.38;;;1.65;;
69485;SDS011;56677;51.710;5.366;2022-11-15T18:07:05;4.28;;;1.70;;
69485;SDS011;56677;51.710;5.366;2022-11-15T18:09:30;3.25;;;1.50;;
69485;SDS011;56677;51.710;5.366;2022-11-15T18:11:55;5.28;;;1.83;;
69485;SDS011;56677;51.710;5.366;2022-11-15T18:14:20;3.60;;;1.60;;
69485;SDS011;56677;51.710;5.366;2022-11-15T18:16:45;4.50;;;1.83;;
69485;SDS011;56677;51.710;5.366;2022-11-15T18:19:11;4.32;;;1.60;;
69485;SDS011;56677;51.710;5.366;2022-11-15T18:21:36;3.57;;;1.63;;
69485;SDS011;56677;51.710;5.366;2022-11-15T18:24:01;3.43;;;2.00;;
69485;SDS011;56677;51.710;5.366;2022-11-15T18:26:27;4.20;;;1.75;;
69485;SDS011;56677;51.710;5.366;2022-11-15T18:28:53;4.47;;;1.60;;
69485;SDS011;56677;51.710;5.366;2022-11-15T18:31:19;5.63;;;1.70;;
69485;SDS011;56677;51.710;5.366;2022-11-15T18:33:45;5.57;;;1.80;;
69485;SDS011;56677;51.710;5.366;2022-11-15T18:36:11;4.20;;;1.77;;
69485;SDS011;56677;51.710;5.366;2022-11-15T18:38:37;4.83;;;2.17;;
69485;SDS011;56677;51.710;5.366;2022-11-15T18:43:30;6.80;;;1.87;;
69485;SDS011;56677;51.710;5.366;2022-11-15T18:46:00;4.43;;;2.10;;
69485;SDS011;56677;51.710;5.366;2022-11-15T18:48:27;4.05;;;1.60;;
69485;SDS011;56677;51.710;5.366;2022-11-15T18:50:52;3.00;;;1.40;;
69485;SDS011;56677;51.710;5.366;2022-11-15T18:53:23;5.45;;;1.88;;
69485;SDS011;56677;51.710;5.366;2022-11-15T18:55:48;2.80;;;1.60;;
69485;SDS011;56677;51.710;5.366;2022-11-15T18:58:13;4.97;;;1.60;;
69485;SDS011;56677;51.710;5.366;2022-11-15T19:00:39;2.83;;;1.42;;
69485;SDS011;56677;51.710;5.366;2022-11-15T19:03:04;2.78;;;1.45;;
69485;SDS011;56677;51.710;5.366;2022-11-15T19:05:29;4.63;;;1.70;;
69485;SDS011;56677;51.710;5.366;2022-11-15T19:07:54;5.97;;;1.20;;
69485;SDS011;56677;51.710;5.366;2022-11-15T19:10:19;4.03;;;1.58;;
69485;SDS011;56677;51.710;5.366;2022-11-15T19:12:44;2.83;;;1.50;;
69485;SDS011;56677;51.710;5.366;2022-11-15T19:15:09;7.93;;;1.52;;
69485;SDS011;56677;51.710;5.366;2022-11-15T19:17:35;3.07;;;1.37;;
69485;SDS011;56677;51.710;5.366;2022-11-15T19:20:00;3.30;;;1.48;;
69485;SDS011;56677;51.710;5.366;2022-11-15T19:22:25;3.25;;;1.42;;
69485;SDS011;56677;51.710;5.366;2022-11-15T19:24:50;4.17;;;1.50;;
69485;SDS011;56677;51.710;5.366;2022-11-15T19:27:15;3.33;;;1.33;;
69485;SDS011;56677;51.710;5.366;2022-11-15T19:29:40;4.77;;;1.60;;
69485;SDS011;56677;51.710;5.366;2022-11-15T19:32:06;4.30;;;1.50;;
69485;SDS011;56677;51.710;5.366;2022-11-15T19:34:31;2.25;;;1.23;;
69485;SDS011;56677;51.710;5.366;2022-11-15T19:36:56;3.20;;;1.50;;
69485;SDS011;56677;51.710;5.366;2022-11-15T19:39:21;5.80;;;1.88;;
69485;SDS011;56677;51.710;5.366;2022-11-15T19:41:46;4.63;;;1.45;;
69485;SDS011;56677;51.710;5.366;2022-11-15T19:44:11;5.63;;;1.43;;
69485;SDS011;56677;51.710;5.366;2022-11-15T19:46:37;4.25;;;1.50;;
69485;SDS011;56677;51.710;5.366;2022-11-15T19:49:02;4.22;;;1.90;;
69485;SDS011;56677;51.710;5.366;2022-11-15T19:51:28;3.13;;;1.30;;
69485;SDS011;56677;51.710;5.366;2022-11-15T19:53:54;4.53;;;1.50;;
69485;SDS011;56677;51.710;5.366;2022-11-15T19:56:19;3.17;;;1.40;;
69485;SDS011;56677;51.710;5.366;2022-11-15T19:58:45;4.03;;;1.65;;
69485;SDS011;56677;51.710;5.366;2022-11-15T20:01:15;5.10;;;1.70;;
69485;SDS011;56677;51.710;5.366;2022-11-15T20:03:40;4.30;;;1.52;;
69485;SDS011;56677;51.710;5.366;2022-11-15T20:06:16;6.07;;;1.42;;
69485;SDS011;56677;51.710;5.366;2022-11-15T20:08:41;3.17;;;1.70;;
69485;SDS011;56677;51.710;5.366;2022-11-15T20:11:07;2.85;;;1.48;;
69485;SDS011;56677;51.710;5.366;2022-11-15T20:13:32;3.73;;;1.40;;
69485;SDS011;56677;51.710;5.366;2022-11-15T20:15:57;3.13;;;1.47;;
69485;SDS011;56677;51.710;5.366;2022-11-15T20:18:23;3.70;;;1.70;;
69485;SDS011;56677;51.710;5.366;2022-11-15T20:20:48;2.58;;;1.67;;
69485;SDS011;56677;51.710;5.366;2022-11-15T20:23:14;4.27;;;1.83;;
69485;SDS011;56677;51.710;5.366;2022-11-15T20:25:42;3.53;;;1.07;;
69485;SDS011;56677;51.710;5.366;2022-11-15T20:28:11;3.20;;;1.65;;
69485;SDS011;56677;51.710;5.366;2022-11-15T20:30:38;3.17;;;1.48;;
69485;SDS011;56677;51.710;5.366;2022-11-15T20:33:06;2.90;;;1.80;;
69485;SDS011;56677;51.710;5.366;2022-11-15T20:35:31;6.20;;;1.52;;
69485;SDS011;56677;51.710;5.366;2022-11-15T20:37:56;2.97;;;1.87;;
69485;SDS011;56677;51.710;5.366;2022-11-15T20:40:21;3.45;;;1.60;;
69485;SDS011;56677;51.710;5.366;2022-11-15T20:42:46;5.38;;;2.10;;
69485;SDS011;56677;51.710;5.366;2022-11-15T20:45:12;3.50;;;1.70;;
69485;SDS011;56677;51.710;5.366;2022-11-15T20:47:37;4.20;;;1.48;;
69485;SDS011;56677;51.710;5.366;2022-11-15T20:50:02;5.82;;;2.00;;
69485;SDS011;56677;51.710;5.366;2022-11-15T20:52:27;3.03;;;1.70;;
69485;SDS011;56677;51.710;5.366;2022-11-15T20:54:52;4.18;;;1.38;;
69485;SDS011;56677;51.710;5.366;2022-11-15T20:57:17;2.50;;;1.27;;
69485;SDS011;56677;51.710;5.366;2022-11-15T20:59:42;4.72;;;1.63;;
69485;SDS011;56677;51.710;5.366;2022-11-15T21:02:11;4.30;;;1.45;;
69485;SDS011;56677;51.710;5.366;2022-11-15T21:04:36;5.28;;;2.20;;
69485;SDS011;56677;51.710;5.366;2022-11-15T21:07:02;4.40;;;1.50;;
69485;SDS011;56677;51.710;5.366;2022-11-15T21:09:27;4.20;;;1.85;;
69485;SDS011;56677;51.710;5.366;2022-11-15T21:11:52;7.20;;;1.50;;
69485;SDS011;56677;51.710;5.366;2022-11-15T21:14:17;2.85;;;1.27;;
69485;SDS011;56677;51.710;5.366;2022-11-15T21:16:42;3.90;;;1.60;;
69485;SDS011;56677;51.710;5.366;2022-11-15T21:19:07;4.20;;;2.00;;
69485;SDS011;56677;51.710;5.366;2022-11-15T21:21:33;4.55;;;1.48;;
